sensor_id;sensor_type;location;lat;lon;timestamp;P1;durP1;ratioP1;P2;durP2;ratioP2
26750;SDS011;14345;48.272;25.926;2023-04-06T00:00:12;24.92;;;16.73;;
26750;SDS011;14345;48.272;25.926;2023-04-06T00:02:39;21.48;;;18.20;;
26750;SDS011;14345;48.272;25.926;2023-04-06T00:05:05;24.25;;;18.20;;
26750;SDS011;14345;48.272;25.926;2023-04-06T00:07:31;25.73;;;19.70;;
26750;SDS011;14345;48.272;25.926;2023-04-06T00:09:58;27.08;;;19.25;;
26750;SDS011;14345;48.272;25.926;2023-04-06T00:12:24;24.02;;;18.88;;
26750;SDS011;14345;48.272;25.926;2023-04-06T00:14:50;24.40;;;19.08;;
26750;SDS011;14345;48.272;25.926;2023-04-06T00:17:16;25.65;;;19.73;;
26750;SDS011;14345;48.272;25.926;2023-04-06T00:19:42;26.63;;;19.92;;
26750;SDS011;14345;48.272;25.926;2023-04-06T00:22:08;27.80;;;20.60;;
26750;SDS011;14345;48.272;25.926;2023-04-06T00:24:34;23.52;;;19.27;;
26750;SDS011;14345;48.272;25.926;2023-04-06T00:27:01;26.15;;;20.13;;
26750;SDS011;14345;48.272;25.926;2023-04-06T00:29:27;28.27;;;20.42;;
26750;SDS011;14345;48.272;25.926;2023-04-06T00:31:53;29.15;;;20.92;;
26750;SDS011;14345;48.272;25.926;2023-04-06T00:34:19;27.83;;;20.55;;
26750;SDS011;14345;48.272;25.926;2023-04-06T00:36:45;27.45;;;20.75;;
26750;SDS011;14345;48.272;25.926;2023-04-06T00:39:11;29.23;;;22.27;;
26750;SDS011;14345;48.272;25.926;2023-04-06T00:41:38;27.75;;;20.95;;
26750;SDS011;14345;48.272;25.926;2023-04-06T00:44:05;27.55;;;21.42;;
26750;SDS011;14345;48.272;25.926;2023-04-06T00:46:31;28.10;;;21.13;;
26750;SDS011;14345;48.272;25.926;2023-04-06T00:48:57;24.08;;;20.23;;
26750;SDS011;14345;48.272;25.926;2023-04-06T00:51:23;27.50;;;21.80;;
26750;SDS011;14345;48.272;25.926;2023-04-06T00:53:50;27.70;;;21.48;;
26750;SDS011;14345;48.272;25.926;2023-04-06T00:56:16;30.05;;;21.67;;
26750;SDS011;14345;48.272;25.926;2023-04-06T00:58:42;26.02;;;21.30;;
26750;SDS011;14345;48.272;25.926;2023-04-06T01:01:08;32.47;;;22.10;;
26750;SDS011;14345;48.272;25.926;2023-04-06T01:03:34;29.17;;;21.55;;
26750;SDS011;14345;48.272;25.926;2023-04-06T01:06:00;27.65;;;21.73;;
26750;SDS011;14345;48.272;25.926;2023-04-06T01:08:26;28.75;;;21.80;;
26750;SDS011;14345;48.272;25.926;2023-04-06T01:10:52;25.27;;;21.13;;
26750;SDS011;14345;48.272;25.926;2023-04-06T01:13:19;27.27;;;22.20;;
26750;SDS011;14345;48.272;25.926;2023-04-06T01:15:45;26.92;;;21.48;;
26750;SDS011;14345;48.272;25.926;2023-04-06T01:18:12;28.98;;;22.45;;
26750;SDS011;14345;48.272;25.926;2023-04-06T01:20:38;28.83;;;22.13;;
26750;SDS011;14345;48.272;25.926;2023-04-06T01:23:04;27.70;;;22.13;;
26750;SDS011;14345;48.272;25.926;2023-04-06T01:25:30;25.80;;;21.13;;
26750;SDS011;14345;48.272;25.926;2023-04-06T01:27:56;27.58;;;21.33;;
26750;SDS011;14345;48.272;25.926;2023-04-06T01:30:22;26.98;;;21.60;;
26750;SDS011;14345;48.272;25.926;2023-04-06T01:32:48;26.50;;;20.48;;
26750;SDS011;14345;48.272;25.926;2023-04-06T01:35:14;25.27;;;20.45;;
26750;SDS011;14345;48.272;25.926;2023-04-06T01:37:40;24.55;;;19.63;;
26750;SDS011;14345;48.272;25.926;2023-04-06T01:40:06;26.90;;;20.77;;
26750;SDS011;14345;48.272;25.926;2023-04-06T01:42:32;25.02;;;19.38;;
26750;SDS011;14345;48.272;25.926;2023-04-06T01:45:00;26.90;;;21.52;;
26750;SDS011;14345;48.272;25.926;2023-04-06T01:47:26;25.55;;;20.48;;
26750;SDS011;14345;48.272;25.926;2023-04-06T01:49:52;29.33;;;22.67;;
26750;SDS011;14345;48.272;25.926;2023-04-06T01:52:18;30.10;;;21.70;;
26750;SDS011;14345;48.272;25.926;2023-04-06T01:54:44;27.60;;;21.67;;
26750;SDS011;14345;48.272;25.926;2023-04-06T01:57:10;24.90;;;21.23;;
26750;SDS011;14345;48.272;25.926;2023-04-06T01:59:36;24.70;;;20.65;;
26750;SDS011;14345;48.272;25.926;2023-04-06T02:02:02;27.00;;;20.63;;
26750;SDS011;14345;48.272;25.926;2023-04-06T02:04:29;29.75;;;19.27;;
26750;SDS011;14345;48.272;25.926;2023-04-06T02:06:55;25.98;;;20.02;;
26750;SDS011;14345;48.272;25.926;2023-04-06T02:09:21;24.73;;;19.95;;
26750;SDS011;14345;48.272;25.926;2023-04-06T02:11:47;27.25;;;20.23;;
26750;SDS011;14345;48.272;25.926;2023-04-06T02:14:13;25.38;;;20.27;;
26750;SDS011;14345;48.272;25.926;2023-04-06T02:16:40;23.63;;;19.42;;
26750;SDS011;14345;48.272;25.926;2023-04-06T02:19:06;24.20;;;20.30;;
26750;SDS011;14345;48.272;25.926;2023-04-06T02:21:32;22.75;;;17.83;;
26750;SDS011;14345;48.272;25.926;2023-04-06T02:23:58;23.35;;;18.60;;
26750;SDS011;14345;48.272;25.926;2023-04-06T02:26:24;23.63;;;19.27;;
26750;SDS011;14345;48.272;25.926;2023-04-06T02:28:50;24.10;;;18.52;;
26750;SDS011;14345;48.272;25.926;2023-04-06T02:31:16;23.02;;;18.85;;
26750;SDS011;14345;48.272;25.926;2023-04-06T02:33:42;23.17;;;17.45;;
26750;SDS011;14345;48.272;25.926;2023-04-06T02:36:08;23.83;;;19.05;;
26750;SDS011;14345;48.272;25.926;2023-04-06T02:38:34;25.02;;;19.33;;
26750;SDS011;14345;48.272;25.926;2023-04-06T02:41:00;23.30;;;18.75;;
26750;SDS011;14345;48.272;25.926;2023-04-06T02:43:26;24.02;;;19.08;;
26750;SDS011;14345;48.272;25.926;2023-04-06T02:45:52;24.58;;;18.77;;
26750;SDS011;14345;48.272;25.926;2023-04-06T02:48:18;26.33;;;20.23;;
26750;SDS011;14345;48.272;25.926;2023-04-06T02:50:44;25.52;;;20.00;;
26750;SDS011;14345;48.272;25.926;2023-04-06T02:53:10;25.95;;;19.98;;
26750;SDS011;14345;48.272;25.926;2023-04-06T02:55:36;23.02;;;18.20;;
26750;SDS011;14345;48.272;25.926;2023-04-06T02:58:02;27.30;;;20.50;;
26750;SDS011;14345;48.272;25.926;2023-04-06T03:00:28;24.50;;;18.80;;
26750;SDS011;14345;48.272;25.926;2023-04-06T03:02:55;23.60;;;18.42;;
26750;SDS011;14345;48.272;25.926;2023-04-06T03:05:21;25.30;;;19.40;;
26750;SDS011;14345;48.272;25.926;2023-04-06T03:07:47;31.27;;;19.38;;
26750;SDS011;14345;48.272;25.926;2023-04-06T03:10:13;29.08;;;18.98;;
26750;SDS011;14345;48.272;25.926;2023-04-06T03:12:39;24.05;;;18.90;;
26750;SDS011;14345;48.272;25.926;2023-04-06T03:15:06;24.23;;;18.38;;
26750;SDS011;14345;48.272;25.926;2023-04-06T03:17:33;32.95;;;19.52;;
26750;SDS011;14345;48.272;25.926;2023-04-06T03:19:59;25.10;;;18.80;;
26750;SDS011;14345;48.272;25.926;2023-04-06T03:22:25;23.08;;;19.60;;
26750;SDS011;14345;48.272;25.926;2023-04-06T03:24:51;25.92;;;20.95;;
26750;SDS011;14345;48.272;25.926;2023-04-06T03:27:17;26.23;;;20.15;;
26750;SDS011;14345;48.272;25.926;2023-04-06T03:29:43;25.45;;;19.10;;
26750;SDS011;14345;48.272;25.926;2023-04-06T03:32:10;24.95;;;19.33;;
26750;SDS011;14345;48.272;25.926;2023-04-06T03:34:36;24.02;;;19.70;;
26750;SDS011;14345;48.272;25.926;2023-04-06T03:37:02;27.48;;;21.55;;
26750;SDS011;14345;48.272;25.926;2023-04-06T03:39:28;29.67;;;20.02;;
26750;SDS011;14345;48.272;25.926;2023-04-06T03:41:54;26.38;;;19.77;;
26750;SDS011;14345;48.272;25.926;2023-04-06T03:44:20;26.30;;;19.85;;
26750;SDS011;14345;48.272;25.926;2023-04-06T03:46:46;24.65;;;19.17;;
26750;SDS011;14345;48.272;25.926;2023-04-06T03:49:12;25.60;;;19.23;;
26750;SDS011;14345;48.272;25.926;2023-04-06T03:51:38;27.92;;;21.27;;
26750;SDS011;14345;48.272;25.926;2023-04-06T03:54:04;25.63;;;20.70;;
26750;SDS011;14345;48.272;25.926;2023-04-06T03:56:30;26.23;;;21.23;;
26750;SDS011;14345;48.272;25.926;2023-04-06T03:58:56;23.85;;;19.23;;
26750;SDS011;14345;48.272;25.926;2023-04-06T04:01:22;24.35;;;18.98;;
26750;SDS011;14345;48.272;25.926;2023-04-06T04:03:48;25.90;;;19.00;;
26750;SDS011;14345;48.272;25.926;2023-04-06T04:06:15;23.45;;;18.52;;
26750;SDS011;14345;48.272;25.926;2023-04-06T04:08:41;26.05;;;20.88;;
26750;SDS011;14345;48.272;25.926;2023-04-06T04:11:07;27.25;;;20.83;;
26750;SDS011;14345;48.272;25.926;2023-04-06T04:13:33;26.83;;;20.20;;
26750;SDS011;14345;48.272;25.926;2023-04-06T04:15:59;25.55;;;20.58;;
26750;SDS011;14345;48.272;25.926;2023-04-06T04:18:25;23.38;;;18.77;;
26750;SDS011;14345;48.272;25.926;2023-04-06T04:20:51;26.20;;;20.30;;
26750;SDS011;14345;48.272;25.926;2023-04-06T04:23:17;22.77;;;18.42;;
26750;SDS011;14345;48.272;25.926;2023-04-06T04:25:43;25.30;;;19.55;;
26750;SDS011;14345;48.272;25.926;2023-04-06T04:28:09;22.67;;;18.50;;
26750;SDS011;14345;48.272;25.926;2023-04-06T04:30:35;24.98;;;16.55;;
26750;SDS011;14345;48.272;25.926;2023-04-06T04:33:02;21.98;;;17.88;;
26750;SDS011;14345;48.272;25.926;2023-04-06T04:35:28;25.98;;;19.30;;
26750;SDS011;14345;48.272;25.926;2023-04-06T04:37:54;22.90;;;18.98;;
26750;SDS011;14345;48.272;25.926;2023-04-06T04:40:20;28.10;;;21.88;;
26750;SDS011;14345;48.272;25.926;2023-04-06T04:42:46;33.55;;;26.48;;
26750;SDS011;14345;48.272;25.926;2023-04-06T04:45:12;36.53;;;29.60;;
26750;SDS011;14345;48.272;25.926;2023-04-06T04:47:38;31.65;;;26.25;;
26750;SDS011;14345;48.272;25.926;2023-04-06T04:50:04;29.58;;;21.85;;
26750;SDS011;14345;48.272;25.926;2023-04-06T04:52:30;25.98;;;19.92;;
26750;SDS011;14345;48.272;25.926;2023-04-06T04:54:56;24.73;;;18.90;;
26750;SDS011;14345;48.272;25.926;2023-04-06T04:57:22;26.70;;;21.25;;
26750;SDS011;14345;48.272;25.926;2023-04-06T04:59:49;23.33;;;19.05;;
26750;SDS011;14345;48.272;25.926;2023-04-06T05:02:16;23.75;;;19.00;;
26750;SDS011;14345;48.272;25.926;2023-04-06T05:04:42;26.10;;;20.92;;
26750;SDS011;14345;48.272;25.926;2023-04-06T05:07:08;26.02;;;20.17;;
26750;SDS011;14345;48.272;25.926;2023-04-06T05:09:35;26.63;;;20.45;;
26750;SDS011;14345;48.272;25.926;2023-04-06T05:12:01;21.92;;;18.23;;
26750;SDS011;14345;48.272;25.926;2023-04-06T05:14:27;23.77;;;21.23;;
26750;SDS011;14345;48.272;25.926;2023-04-06T05:16:54;24.08;;;19.42;;
26750;SDS011;14345;48.272;25.926;2023-04-06T05:19:20;22.80;;;18.77;;
26750;SDS011;14345;48.272;25.926;2023-04-06T05:21:46;22.60;;;18.75;;
26750;SDS011;14345;48.272;25.926;2023-04-06T05:24:12;25.05;;;18.65;;
26750;SDS011;14345;48.272;25.926;2023-04-06T05:26:38;22.80;;;18.05;;
26750;SDS011;14345;48.272;25.926;2023-04-06T05:29:05;21.65;;;17.17;;
26750;SDS011;14345;48.272;25.926;2023-04-06T05:31:31;21.50;;;18.15;;
26750;SDS011;14345;48.272;25.926;2023-04-06T05:33:57;23.60;;;18.63;;
26750;SDS011;14345;48.272;25.926;2023-04-06T05:36:23;21.55;;;17.48;;
26750;SDS011;14345;48.272;25.926;2023-04-06T05:38:49;22.00;;;16.73;;
26750;SDS011;14345;48.272;25.926;2023-04-06T05:41:17;21.92;;;18.38;;
26750;SDS011;14345;48.272;25.926;2023-04-06T05:43:44;21.52;;;17.42;;
26750;SDS011;14345;48.272;25.926;2023-04-06T05:46:10;21.35;;;17.23;;
26750;SDS011;14345;48.272;25.926;2023-04-06T05:48:36;20.77;;;17.17;;
26750;SDS011;14345;48.272;25.926;2023-04-06T05:51:02;22.08;;;16.88;;
26750;SDS011;14345;48.272;25.926;2023-04-06T05:53:31;20.20;;;16.60;;
26750;SDS011;14345;48.272;25.926;2023-04-06T05:55:57;22.00;;;17.48;;
26750;SDS011;14345;48.272;25.926;2023-04-06T05:58:26;21.38;;;16.45;;
26750;SDS011;14345;48.272;25.926;2023-04-06T06:00:56;18.40;;;15.68;;
26750;SDS011;14345;48.272;25.926;2023-04-06T06:03:22;22.60;;;17.20;;
26750;SDS011;14345;48.272;25.926;2023-04-06T06:05:48;20.65;;;16.98;;
26750;SDS011;14345;48.272;25.926;2023-04-06T06:08:14;19.98;;;16.30;;
26750;SDS011;14345;48.272;25.926;2023-04-06T06:10:40;19.40;;;16.20;;
26750;SDS011;14345;48.272;25.926;2023-04-06T06:13:06;20.63;;;16.83;;
26750;SDS011;14345;48.272;25.926;2023-04-06T06:15:32;21.13;;;16.63;;
26750;SDS011;14345;48.272;25.926;2023-04-06T06:17:58;21.98;;;15.93;;
26750;SDS011;14345;48.272;25.926;2023-04-06T06:20:25;20.23;;;16.15;;
26750;SDS011;14345;48.272;25.926;2023-04-06T06:22:51;23.15;;;17.25;;
26750;SDS011;14345;48.272;25.926;2023-04-06T06:25:17;20.00;;;15.07;;
26750;SDS011;14345;48.272;25.926;2023-04-06T06:27:43;20.48;;;16.73;;
26750;SDS011;14345;48.272;25.926;2023-04-06T06:30:09;21.58;;;16.27;;
26750;SDS011;14345;48.272;25.926;2023-04-06T06:32:36;19.88;;;16.00;;
26750;SDS011;14345;48.272;25.926;2023-04-06T06:35:02;23.20;;;16.92;;
26750;SDS011;14345;48.272;25.926;2023-04-06T06:37:28;19.63;;;15.50;;
26750;SDS011;14345;48.272;25.926;2023-04-06T06:39:54;21.70;;;17.08;;
26750;SDS011;14345;48.272;25.926;2023-04-06T06:42:20;19.73;;;16.52;;
26750;SDS011;14345;48.272;25.926;2023-04-06T06:44:46;19.75;;;16.75;;
26750;SDS011;14345;48.272;25.926;2023-04-06T06:47:12;22.23;;;16.15;;
26750;SDS011;14345;48.272;25.926;2023-04-06T06:49:38;21.27;;;16.63;;
26750;SDS011;14345;48.272;25.926;2023-04-06T06:52:04;17.90;;;14.50;;
26750;SDS011;14345;48.272;25.926;2023-04-06T06:54:30;19.60;;;15.45;;
26750;SDS011;14345;48.272;25.926;2023-04-06T06:56:56;19.42;;;14.57;;
26750;SDS011;14345;48.272;25.926;2023-04-06T06:59:22;17.67;;;14.77;;
26750;SDS011;14345;48.272;25.926;2023-04-06T07:01:49;16.77;;;13.95;;
26750;SDS011;14345;48.272;25.926;2023-04-06T07:04:15;18.27;;;14.90;;
26750;SDS011;14345;48.272;25.926;2023-04-06T07:06:41;19.05;;;14.50;;
26750;SDS011;14345;48.272;25.926;2023-04-06T07:09:07;19.15;;;14.32;;
26750;SDS011;14345;48.272;25.926;2023-04-06T07:11:33;17.90;;;14.10;;
26750;SDS011;14345;48.272;25.926;2023-04-06T07:14:00;20.42;;;16.27;;
26750;SDS011;14345;48.272;25.926;2023-04-06T07:16:26;19.77;;;15.52;;
26750;SDS011;14345;48.272;25.926;2023-04-06T07:18:52;17.45;;;14.65;;
26750;SDS011;14345;48.272;25.926;2023-04-06T07:21:18;17.70;;;14.05;;
26750;SDS011;14345;48.272;25.926;2023-04-06T07:23:44;16.30;;;12.90;;
26750;SDS011;14345;48.272;25.926;2023-04-06T07:26:12;17.63;;;14.30;;
26750;SDS011;14345;48.272;25.926;2023-04-06T07:28:38;19.90;;;14.02;;
26750;SDS011;14345;48.272;25.926;2023-04-06T07:31:05;16.40;;;12.90;;
26750;SDS011;14345;48.272;25.926;2023-04-06T07:33:31;14.98;;;12.02;;
26750;SDS011;14345;48.272;25.926;2023-04-06T07:35:57;16.83;;;13.48;;
26750;SDS011;14345;48.272;25.926;2023-04-06T07:38:24;14.15;;;12.30;;
26750;SDS011;14345;48.272;25.926;2023-04-06T07:40:50;16.92;;;13.52;;
26750;SDS011;14345;48.272;25.926;2023-04-06T07:43:16;16.20;;;13.40;;
26750;SDS011;14345;48.272;25.926;2023-04-06T07:45:42;15.40;;;12.30;;
26750;SDS011;14345;48.272;25.926;2023-04-06T07:48:08;17.42;;;12.73;;
26750;SDS011;14345;48.272;25.926;2023-04-06T07:50:35;14.18;;;12.07;;
26750;SDS011;14345;48.272;25.926;2023-04-06T07:53:01;16.02;;;12.30;;
26750;SDS011;14345;48.272;25.926;2023-04-06T07:55:27;15.95;;;12.60;;
26750;SDS011;14345;48.272;25.926;2023-04-06T07:57:53;14.23;;;12.50;;
26750;SDS011;14345;48.272;25.926;2023-04-06T08:00:20;16.52;;;12.38;;
26750;SDS011;14345;48.272;25.926;2023-04-06T08:02:46;15.35;;;12.20;;
26750;SDS011;14345;48.272;25.926;2023-04-06T08:05:12;14.18;;;11.27;;
26750;SDS011;14345;48.272;25.926;2023-04-06T08:07:38;14.48;;;12.07;;
26750;SDS011;14345;48.272;25.926;2023-04-06T08:10:04;16.60;;;12.15;;
26750;SDS011;14345;48.272;25.926;2023-04-06T08:12:31;15.63;;;11.43;;
26750;SDS011;14345;48.272;25.926;2023-04-06T08:14:58;13.35;;;10.75;;
26750;SDS011;14345;48.272;25.926;2023-04-06T08:17:24;13.02;;;11.00;;
26750;SDS011;14345;48.272;25.926;2023-04-06T08:19:52;11.85;;;10.48;;
26750;SDS011;14345;48.272;25.926;2023-04-06T08:22:18;14.00;;;11.15;;
26750;SDS011;14345;48.272;25.926;2023-04-06T08:24:44;13.45;;;10.77;;
26750;SDS011;14345;48.272;25.926;2023-04-06T08:27:10;12.98;;;11.05;;
26750;SDS011;14345;48.272;25.926;2023-04-06T08:29:38;12.45;;;10.45;;
26750;SDS011;14345;48.272;25.926;2023-04-06T08:32:04;11.85;;;9.50;;
26750;SDS011;14345;48.272;25.926;2023-04-06T08:34:32;15.13;;;10.63;;
26750;SDS011;14345;48.272;25.926;2023-04-06T08:36:58;12.10;;;10.25;;
26750;SDS011;14345;48.272;25.926;2023-04-06T08:39:24;12.23;;;10.73;;
26750;SDS011;14345;48.272;25.926;2023-04-06T08:41:52;38.72;;;25.48;;
26750;SDS011;14345;48.272;25.926;2023-04-06T08:44:21;28.05;;;21.05;;
26750;SDS011;14345;48.272;25.926;2023-04-06T08:46:47;13.23;;;10.93;;
26750;SDS011;14345;48.272;25.926;2023-04-06T08:49:15;15.60;;;13.52;;
26750;SDS011;14345;48.272;25.926;2023-04-06T08:51:41;17.23;;;13.38;;
26750;SDS011;14345;48.272;25.926;2023-04-06T08:54:08;15.40;;;12.18;;
26750;SDS011;14345;48.272;25.926;2023-04-06T08:56:36;15.90;;;13.05;;
26750;SDS011;14345;48.272;25.926;2023-04-06T08:59:02;14.05;;;11.32;;
26750;SDS011;14345;48.272;25.926;2023-04-06T09:01:28;15.88;;;11.27;;
26750;SDS011;14345;48.272;25.926;2023-04-06T09:03:56;14.95;;;11.30;;
26750;SDS011;14345;48.272;25.926;2023-04-06T09:06:22;12.77;;;10.82;;
26750;SDS011;14345;48.272;25.926;2023-04-06T09:08:48;13.23;;;11.02;;
26750;SDS011;14345;48.272;25.926;2023-04-06T09:11:14;12.43;;;10.88;;
26750;SDS011;14345;48.272;25.926;2023-04-06T09:13:50;12.68;;;10.45;;
26750;SDS011;14345;48.272;25.926;2023-04-06T09:16:17;13.93;;;10.77;;
26750;SDS011;14345;48.272;25.926;2023-04-06T09:18:43;14.00;;;11.13;;
26750;SDS011;14345;48.272;25.926;2023-04-06T09:21:10;11.15;;;9.70;;
26750;SDS011;14345;48.272;25.926;2023-04-06T09:23:36;13.85;;;11.02;;
26750;SDS011;14345;48.272;25.926;2023-04-06T09:26:06;13.70;;;10.85;;
26750;SDS011;14345;48.272;25.926;2023-04-06T09:31:07;13.73;;;10.85;;
26750;SDS011;14345;48.272;25.926;2023-04-06T09:33:37;14.95;;;11.15;;
26750;SDS011;14345;48.272;25.926;2023-04-06T09:36:04;14.35;;;11.27;;
26750;SDS011;14345;48.272;25.926;2023-04-06T09:38:30;12.93;;;10.45;;
26750;SDS011;14345;48.272;25.926;2023-04-06T09:40:56;12.90;;;10.95;;
26750;SDS011;14345;48.272;25.926;2023-04-06T09:43:28;12.23;;;10.95;;
26750;SDS011;14345;48.272;25.926;2023-04-06T09:45:55;14.48;;;12.15;;
26750;SDS011;14345;48.272;25.926;2023-04-06T09:48:22;13.57;;;11.20;;
26750;SDS011;14345;48.272;25.926;2023-04-06T09:50:51;14.82;;;12.00;;
26750;SDS011;14345;48.272;25.926;2023-04-06T09:53:19;12.93;;;10.10;;
26750;SDS011;14345;48.272;25.926;2023-04-06T09:55:46;11.90;;;9.80;;
26750;SDS011;14345;48.272;25.926;2023-04-06T09:58:16;13.27;;;10.60;;
26750;SDS011;14345;48.272;25.926;2023-04-06T10:00:53;15.68;;;11.30;;
26750;SDS011;14345;48.272;25.926;2023-04-06T10:06:10;13.65;;;11.00;;
26750;SDS011;14345;48.272;25.926;2023-04-06T10:08:37;13.32;;;10.95;;
26750;SDS011;14345;48.272;25.926;2023-04-06T10:11:05;16.02;;;11.82;;
26750;SDS011;14345;48.272;25.926;2023-04-06T10:13:32;13.23;;;10.48;;
26750;SDS011;14345;48.272;25.926;2023-04-06T10:15:58;13.05;;;11.35;;
26750;SDS011;14345;48.272;25.926;2023-04-06T10:18:26;16.95;;;11.93;;
26750;SDS011;14345;48.272;25.926;2023-04-06T10:23:51;14.98;;;12.60;;
26750;SDS011;14345;48.272;25.926;2023-04-06T10:26:19;13.43;;;11.10;;
26750;SDS011;14345;48.272;25.926;2023-04-06T10:28:46;15.25;;;12.55;;
26750;SDS011;14345;48.272;25.926;2023-04-06T10:31:12;15.65;;;12.70;;
26750;SDS011;14345;48.272;25.926;2023-04-06T10:33:39;16.90;;;13.00;;
26750;SDS011;14345;48.272;25.926;2023-04-06T10:36:12;14.98;;;12.27;;
26750;SDS011;14345;48.272;25.926;2023-04-06T10:38:39;15.33;;;12.43;;
26750;SDS011;14345;48.272;25.926;2023-04-06T10:41:05;14.63;;;11.80;;
26750;SDS011;14345;48.272;25.926;2023-04-06T10:43:35;14.35;;;11.68;;
26750;SDS011;14345;48.272;25.926;2023-04-06T10:46:02;13.50;;;11.48;;
26750;SDS011;14345;48.272;25.926;2023-04-06T10:48:38;13.60;;;12.07;;
26750;SDS011;14345;48.272;25.926;2023-04-06T10:51:11;15.75;;;12.52;;
26750;SDS011;14345;48.272;25.926;2023-04-06T10:53:38;13.95;;;12.10;;
26750;SDS011;14345;48.272;25.926;2023-04-06T10:56:04;15.18;;;12.05;;
26750;SDS011;14345;48.272;25.926;2023-04-06T10:58:36;11.98;;;10.45;;
26750;SDS011;14345;48.272;25.926;2023-04-06T11:01:02;13.18;;;10.95;;
26750;SDS011;14345;48.272;25.926;2023-04-06T11:03:28;15.43;;;10.38;;
26750;SDS011;14345;48.272;25.926;2023-04-06T11:05:54;12.45;;;10.65;;
26750;SDS011;14345;48.272;25.926;2023-04-06T11:08:26;12.07;;;10.73;;
26750;SDS011;14345;48.272;25.926;2023-04-06T11:11:04;17.70;;;13.80;;
26750;SDS011;14345;48.272;25.926;2023-04-06T11:14:04;14.48;;;10.95;;
26750;SDS011;14345;48.272;25.926;2023-04-06T11:16:24;11.23;;;9.13;;
26750;SDS011;14345;48.272;25.926;2023-04-06T11:19:00;11.55;;;9.73;;
26750;SDS011;14345;48.272;25.926;2023-04-06T11:24:18;13.13;;;10.90;;
26750;SDS011;14345;48.272;25.926;2023-04-06T11:26:46;12.77;;;9.57;;
26750;SDS011;14345;48.272;25.926;2023-04-06T11:29:14;13.85;;;11.13;;
26750;SDS011;14345;48.272;25.926;2023-04-06T11:31:48;28.30;;;19.48;;
26750;SDS011;14345;48.272;25.926;2023-04-06T11:34:20;16.13;;;13.50;;
26750;SDS011;14345;48.272;25.926;2023-04-06T11:36:47;11.73;;;9.63;;
26750;SDS011;14345;48.272;25.926;2023-04-06T11:39:17;16.80;;;13.90;;
26750;SDS011;14345;48.272;25.926;2023-04-06T11:41:47;14.35;;;9.90;;
26750;SDS011;14345;48.272;25.926;2023-04-06T11:44:13;10.68;;;8.30;;
26750;SDS011;14345;48.272;25.926;2023-04-06T11:46:39;11.70;;;9.85;;
26750;SDS011;14345;48.272;25.926;2023-04-06T11:49:05;11.40;;;9.07;;
26750;SDS011;14345;48.272;25.926;2023-04-06T11:51:35;11.30;;;9.93;;
26750;SDS011;14345;48.272;25.926;2023-04-06T11:54:01;13.48;;;10.75;;
26750;SDS011;14345;48.272;25.926;2023-04-06T11:56:28;13.55;;;10.40;;
26750;SDS011;14345;48.272;25.926;2023-04-06T11:58:55;13.98;;;9.82;;
26750;SDS011;14345;48.272;25.926;2023-04-06T12:01:22;12.50;;;8.43;;
26750;SDS011;14345;48.272;25.926;2023-04-06T12:03:48;11.30;;;9.82;;
26750;SDS011;14345;48.272;25.926;2023-04-06T12:06:15;13.52;;;9.90;;
26750;SDS011;14345;48.272;25.926;2023-04-06T12:08:41;14.02;;;11.70;;
26750;SDS011;14345;48.272;25.926;2023-04-06T12:11:07;50.08;;;31.83;;
26750;SDS011;14345;48.272;25.926;2023-04-06T12:13:33;28.05;;;22.40;;
26750;SDS011;14345;48.272;25.926;2023-04-06T12:15:59;13.90;;;10.73;;
26750;SDS011;14345;48.272;25.926;2023-04-06T12:18:25;9.45;;;7.85;;
26750;SDS011;14345;48.272;25.926;2023-04-06T12:20:51;9.38;;;8.15;;
26750;SDS011;14345;48.272;25.926;2023-04-06T12:23:18;10.98;;;8.35;;
26750;SDS011;14345;48.272;25.926;2023-04-06T12:25:45;11.23;;;9.20;;
26750;SDS011;14345;48.272;25.926;2023-04-06T12:28:11;10.82;;;8.40;;
26750;SDS011;14345;48.272;25.926;2023-04-06T12:30:37;10.50;;;8.57;;
26750;SDS011;14345;48.272;25.926;2023-04-06T12:33:03;10.05;;;8.63;;
26750;SDS011;14345;48.272;25.926;2023-04-06T12:35:33;10.95;;;8.70;;
26750;SDS011;14345;48.272;25.926;2023-04-06T12:37:59;9.88;;;8.48;;
26750;SDS011;14345;48.272;25.926;2023-04-06T12:40:25;10.65;;;8.50;;
26750;SDS011;14345;48.272;25.926;2023-04-06T12:42:51;8.18;;;7.15;;
26750;SDS011;14345;48.272;25.926;2023-04-06T12:45:17;7.88;;;6.68;;
26750;SDS011;14345;48.272;25.926;2023-04-06T12:47:43;8.02;;;6.93;;
26750;SDS011;14345;48.272;25.926;2023-04-06T12:50:09;8.32;;;7.50;;
26750;SDS011;14345;48.272;25.926;2023-04-06T12:52:36;8.05;;;6.97;;
26750;SDS011;14345;48.272;25.926;2023-04-06T12:55:02;7.20;;;6.30;;
26750;SDS011;14345;48.272;25.926;2023-04-06T12:57:30;8.05;;;6.63;;
26750;SDS011;14345;48.272;25.926;2023-04-06T12:59:56;9.02;;;6.53;;
26750;SDS011;14345;48.272;25.926;2023-04-06T13:02:23;8.77;;;7.07;;
26750;SDS011;14345;48.272;25.926;2023-04-06T13:04:49;7.43;;;6.63;;
26750;SDS011;14345;48.272;25.926;2023-04-06T13:07:15;8.43;;;6.65;;
26750;SDS011;14345;48.272;25.926;2023-04-06T13:09:41;8.27;;;6.63;;
26750;SDS011;14345;48.272;25.926;2023-04-06T13:12:07;7.45;;;6.63;;
26750;SDS011;14345;48.272;25.926;2023-04-06T13:14:33;7.60;;;6.50;;
26750;SDS011;14345;48.272;25.926;2023-04-06T13:16:59;8.32;;;6.90;;
26750;SDS011;14345;48.272;25.926;2023-04-06T13:19:25;10.45;;;7.30;;
26750;SDS011;14345;48.272;25.926;2023-04-06T13:21:52;9.20;;;6.78;;
26750;SDS011;14345;48.272;25.926;2023-04-06T13:24:18;6.63;;;5.80;;
26750;SDS011;14345;48.272;25.926;2023-04-06T13:26:44;8.38;;;7.10;;
26750;SDS011;14345;48.272;25.926;2023-04-06T13:29:10;9.25;;;6.28;;
26750;SDS011;14345;48.272;25.926;2023-04-06T13:31:37;7.60;;;6.32;;
26750;SDS011;14345;48.272;25.926;2023-04-06T13:34:03;8.90;;;6.95;;
26750;SDS011;14345;48.272;25.926;2023-04-06T13:36:30;7.88;;;6.45;;
26750;SDS011;14345;48.272;25.926;2023-04-06T13:38:59;6.85;;;5.75;;
26750;SDS011;14345;48.272;25.926;2023-04-06T13:41:25;7.68;;;6.78;;
26750;SDS011;14345;48.272;25.926;2023-04-06T13:43:52;7.85;;;6.90;;
26750;SDS011;14345;48.272;25.926;2023-04-06T13:46:18;8.35;;;6.47;;
26750;SDS011;14345;48.272;25.926;2023-04-06T13:48:44;9.48;;;6.78;;
26750;SDS011;14345;48.272;25.926;2023-04-06T13:51:12;11.25;;;8.35;;
26750;SDS011;14345;48.272;25.926;2023-04-06T13:53:39;9.80;;;7.38;;
26750;SDS011;14345;48.272;25.926;2023-04-06T13:56:05;10.15;;;7.60;;
26750;SDS011;14345;48.272;25.926;2023-04-06T13:58:32;10.48;;;7.40;;
26750;SDS011;14345;48.272;25.926;2023-04-06T14:01:07;12.63;;;8.65;;
26750;SDS011;14345;48.272;25.926;2023-04-06T14:03:34;59.03;;;31.17;;
26750;SDS011;14345;48.272;25.926;2023-04-06T14:06:01;75.05;;;40.95;;
26750;SDS011;14345;48.272;25.926;2023-04-06T14:08:27;11.48;;;8.57;;
26750;SDS011;14345;48.272;25.926;2023-04-06T14:10:53;10.60;;;8.10;;
26750;SDS011;14345;48.272;25.926;2023-04-06T14:13:19;10.63;;;8.27;;
26750;SDS011;14345;48.272;25.926;2023-04-06T14:15:45;8.77;;;7.13;;
26750;SDS011;14345;48.272;25.926;2023-04-06T14:18:11;8.88;;;6.90;;
26750;SDS011;14345;48.272;25.926;2023-04-06T14:20:37;9.65;;;7.30;;